createdAt,value
2023-06-18T00:00:35.998Z,25.50
2023-06-18T00:01:36.095Z,25.50
2023-06-18T00:02:36.051Z,25.49
2023-06-18T00:03:36.117Z,25.49
2023-06-18T00:04:36.072Z,25.48
2023-06-18T00:05:36.085Z,25.48
2023-06-18T00:06:36.088Z,25.48
2023-06-18T00:07:36.116Z,25.47
2023-06-18T00:08:36.146Z,25.47
2023-06-18T00:09:36.139Z,25.47
2023-06-18T00:10:36.174Z,25.46
2023-06-18T00:11:36.185Z,25.46
2023-06-18T00:12:36.196Z,25.46
2023-06-18T00:13:36.203Z,25.46
2023-06-18T00:14:36.262Z,25.45
2023-06-18T00:15:36.302Z,25.45
2023-06-18T00:16:36.244Z,25.44
2023-06-18T00:17:36.298Z,25.44
2023-06-18T00:18:36.293Z,25.44
2023-06-18T00:19:36.313Z,25.43
2023-06-18T00:20:36.326Z,25.43
2023-06-18T00:21:36.322Z,25.43
2023-06-18T00:22:36.335Z,25.42
2023-06-18T00:23:36.371Z,25.42
2023-06-18T00:24:36.484Z,25.42
2023-06-18T00:25:36.419Z,25.42
2023-06-18T00:26:36.435Z,25.42
2023-06-18T00:27:36.439Z,25.41
2023-06-18T00:28:36.450Z,25.41
2023-06-18T00:29:36.476Z,25.40
2023-06-18T00:30:36.488Z,25.40
2023-06-18T00:31:36.542Z,25.40
2023-06-18T00:32:36.563Z,25.40
2023-06-18T00:33:36.548Z,25.40
2023-06-18T00:34:36.572Z,25.39
2023-06-18T00:35:36.611Z,25.38
2023-06-18T00:36:36.637Z,25.38
2023-06-18T00:37:36.661Z,25.37
2023-06-18T00:38:36.667Z,25.37
2023-06-18T00:39:36.701Z,25.37
2023-06-18T00:40:36.695Z,25.37
2023-06-18T00:41:36.711Z,25.37
2023-06-18T00:42:36.760Z,25.36
2023-06-18T00:43:36.766Z,25.36
2023-06-18T00:44:36.816Z,25.36
2023-06-18T00:45:36.814Z,25.36
2023-06-18T00:46:36.913Z,25.34
2023-06-18T00:47:36.856Z,25.35
2023-06-18T00:48:36.885Z,25.35
2023-06-18T00:49:36.906Z,25.34
2023-06-18T00:50:36.956Z,25.34
2023-06-18T00:51:36.934Z,25.34
2023-06-18T00:52:36.978Z,25.34
2023-06-18T00:53:36.988Z,25.34
2023-06-18T00:54:37.022Z,25.33
2023-06-18T00:55:37.041Z,25.32
2023-06-18T00:56:37.079Z,25.33
2023-06-18T00:57:37.094Z,25.32
2023-06-18T00:58:37.126Z,25.32
2023-06-18T00:59:37.150Z,25.32
2023-06-18T01:00:37.165Z,25.32
2023-06-18T01:01:37.251Z,25.32
2023-06-18T01:02:41.500Z,25.31
2023-06-18T01:03:37.252Z,25.30
2023-06-18T01:04:37.225Z,25.31
2023-06-18T01:05:37.200Z,25.31
2023-06-18T01:06:37.175Z,25.30
2023-06-18T01:07:40.005Z,25.30
2023-06-18T01:08:38.171Z,25.29
2023-06-18T01:09:37.142Z,25.29
2023-06-18T01:10:37.131Z,25.29
2023-06-18T01:11:37.143Z,25.28
2023-06-18T01:12:37.124Z,25.28
2023-06-18T01:13:37.107Z,25.28
2023-06-18T01:14:37.228Z,25.28
2023-06-18T01:15:37.119Z,25.27
2023-06-18T01:16:37.254Z,25.27
2023-06-18T01:17:37.110Z,25.27
2023-06-18T01:18:37.094Z,25.27
2023-06-18T01:19:37.073Z,25.27
2023-06-18T01:20:37.065Z,25.26
2023-06-18T01:21:37.057Z,25.26
2023-06-18T01:22:37.067Z,25.25
2023-06-18T01:23:37.064Z,25.25
2023-06-18T01:24:37.073Z,25.25
2023-06-18T01:25:37.033Z,25.24
2023-06-18T01:26:37.058Z,25.24
2023-06-18T01:27:37.016Z,25.24
2023-06-18T01:28:37.060Z,25.24
2023-06-18T01:29:37.042Z,25.24
2023-06-18T01:30:37.101Z,25.24
2023-06-18T01:31:37.089Z,25.23
2023-06-18T01:32:37.191Z,25.22
2023-06-18T01:33:37.149Z,25.22
2023-06-18T01:34:37.173Z,25.22
2023-06-18T01:35:37.192Z,25.21
2023-06-18T01:36:37.211Z,25.21
2023-06-18T01:37:37.232Z,25.21
2023-06-18T01:38:37.244Z,25.21
2023-06-18T01:39:37.277Z,25.21
2023-06-18T01:40:37.316Z,25.19
2023-06-18T01:41:37.321Z,25.20
2023-06-18T01:42:37.339Z,25.20
2023-06-18T01:43:37.379Z,25.19
2023-06-18T01:44:37.378Z,25.19
2023-06-18T01:45:37.410Z,25.19
2023-06-18T01:46:37.548Z,25.18
2023-06-18T01:47:37.490Z,25.19
2023-06-18T01:48:37.473Z,25.18
2023-06-18T01:49:37.510Z,25.19
2023-06-18T01:50:37.515Z,25.18
2023-06-18T01:51:37.543Z,25.18
2023-06-18T01:52:37.565Z,25.17
2023-06-18T01:53:37.565Z,25.17
2023-06-18T01:54:37.592Z,25.17
2023-06-18T01:55:37.626Z,25.17
2023-06-18T01:56:37.649Z,25.16
2023-06-18T01:57:37.653Z,25.17
2023-06-18T01:58:37.683Z,25.17
2023-06-18T01:59:37.694Z,25.16
2023-06-18T02:00:37.730Z,25.15
2023-06-18T02:01:37.740Z,25.15
2023-06-18T02:02:37.821Z,25.15
2023-06-18T02:03:37.862Z,25.14
2023-06-18T02:04:37.816Z,25.15
2023-06-18T02:05:37.827Z,25.15
2023-06-18T02:06:37.855Z,25.14
2023-06-18T02:07:37.861Z,25.14
2023-06-18T02:08:37.891Z,25.14
2023-06-18T02:09:37.928Z,25.13
2023-06-18T02:10:37.962Z,25.13
2023-06-18T02:11:37.964Z,25.14
2023-06-18T02:12:37.985Z,25.13
2023-06-18T02:13:38.004Z,25.13
2023-06-18T02:14:38.034Z,25.12
2023-06-18T02:15:38.064Z,25.12
2023-06-18T02:16:38.070Z,25.12
2023-06-18T02:17:38.117Z,25.11
2023-06-18T02:18:38.109Z,25.11
2023-06-18T02:19:38.160Z,25.11
2023-06-18T02:20:38.167Z,25.11
2023-06-18T02:21:38.174Z,25.10
2023-06-18T02:22:38.199Z,25.11
2023-06-18T02:23:38.225Z,25.09
2023-06-18T02:24:38.366Z,25.10
2023-06-18T02:25:38.275Z,25.09
2023-06-18T02:26:38.305Z,25.09
2023-06-18T02:27:38.338Z,25.09
2023-06-18T02:28:38.347Z,25.09
2023-06-18T02:29:38.390Z,25.09
2023-06-18T02:30:38.419Z,25.08
2023-06-18T02:31:38.445Z,25.08
2023-06-18T02:32:38.508Z,25.08
2023-06-18T02:33:38.481Z,25.08
2023-06-18T02:34:38.526Z,25.07
2023-06-18T02:35:38.545Z,25.07
2023-06-18T02:36:38.575Z,25.08
2023-06-18T02:37:38.591Z,25.06
2023-06-18T02:38:38.627Z,25.06
2023-06-18T02:39:38.648Z,25.07
2023-06-18T02:40:38.672Z,25.06
2023-06-18T02:41:38.728Z,25.06
2023-06-18T02:42:38.738Z,25.05
2023-06-18T02:43:38.750Z,25.05
2023-06-18T02:44:38.798Z,25.05
2023-06-18T02:45:38.815Z,25.05
2023-06-18T02:46:38.893Z,25.05
2023-06-18T02:47:38.925Z,25.04
2023-06-18T02:48:38.898Z,25.04
2023-06-18T02:49:38.949Z,25.04
2023-06-18T02:50:38.964Z,25.04
2023-06-18T02:51:39.016Z,25.04
2023-06-18T02:52:39.033Z,25.04
2023-06-18T02:53:39.063Z,25.03
2023-06-18T02:54:39.086Z,25.03
2023-06-18T02:55:39.139Z,25.03
2023-06-18T02:56:39.158Z,25.02
2023-06-18T02:57:39.192Z,25.03
2023-06-18T02:58:39.222Z,25.02
2023-06-18T02:59:39.239Z,25.02
2023-06-18T03:00:39.320Z,25.02
2023-06-18T03:01:39.312Z,25.02
2023-06-18T03:02:39.396Z,25.02
2023-06-18T03:03:39.364Z,25.02
2023-06-18T03:04:39.463Z,25.02
2023-06-18T03:05:39.454Z,25.01
2023-06-18T03:06:39.476Z,25.01
2023-06-18T03:07:39.525Z,25.00
2023-06-18T03:08:39.541Z,25.01
2023-06-18T03:09:39.589Z,25.01
2023-06-18T03:10:39.614Z,25.01
2023-06-18T03:11:39.645Z,25.01
2023-06-18T03:12:39.695Z,25.01
2023-06-18T03:13:39.738Z,25.00
2023-06-18T03:14:39.795Z,24.99
2023-06-18T03:15:39.825Z,25.00
2023-06-18T03:16:39.948Z,24.99
2023-06-18T03:17:39.925Z,25.00
2023-06-18T03:18:39.940Z,25.00
2023-06-18T03:19:39.975Z,25.00
2023-06-18T03:20:40.015Z,24.99
2023-06-18T03:21:40.067Z,25.00
2023-06-18T03:22:40.115Z,25.00
2023-06-18T03:23:40.134Z,24.99
2023-06-18T03:24:40.222Z,24.99
2023-06-18T03:25:40.234Z,24.99
2023-06-18T03:26:40.256Z,25.00
2023-06-18T03:27:40.309Z,24.99
2023-06-18T03:28:40.343Z,24.99
2023-06-18T03:29:40.404Z,24.99
2023-06-18T03:30:40.436Z,24.99
2023-06-18T03:31:40.454Z,24.99
2023-06-18T03:32:40.514Z,24.98
2023-06-18T03:33:40.528Z,24.98
2023-06-18T03:34:40.564Z,24.99
2023-06-18T03:35:40.626Z,25.00
2023-06-18T03:36:40.658Z,24.99
2023-06-18T03:37:40.681Z,24.99
2023-06-18T03:38:40.744Z,25.00
2023-06-18T03:39:40.786Z,25.00
2023-06-18T03:40:40.801Z,25.00
2023-06-18T03:41:40.849Z,25.00
2023-06-18T03:42:40.896Z,25.01
2023-06-18T03:43:40.931Z,25.01
2023-06-18T03:44:40.963Z,25.01
2023-06-18T03:45:40.998Z,25.00
2023-06-18T03:46:41.105Z,25.01
2023-06-18T03:47:41.109Z,25.01
2023-06-18T03:48:41.120Z,25.01
2023-06-18T03:49:41.168Z,25.01
2023-06-18T03:50:41.188Z,25.02
2023-06-18T03:51:41.218Z,25.02
2023-06-18T03:52:41.263Z,25.02
2023-06-18T03:53:41.303Z,25.03
2023-06-18T03:54:41.406Z,25.02
2023-06-18T03:55:41.369Z,25.03
2023-06-18T03:56:41.400Z,25.03
2023-06-18T03:57:41.443Z,25.03
2023-06-18T03:58:41.458Z,25.03
2023-06-18T03:59:41.508Z,25.04
2023-06-18T04:00:41.539Z,25.04
2023-06-18T04:01:41.633Z,25.04
2023-06-18T04:02:41.725Z,25.05
2023-06-18T04:03:41.683Z,25.04
2023-06-18T04:04:41.687Z,25.05
2023-06-18T04:05:41.709Z,25.05
2023-06-18T04:06:41.766Z,25.05
2023-06-18T04:07:41.791Z,25.06
2023-06-18T04:08:41.842Z,25.06
2023-06-18T04:09:41.841Z,25.05
2023-06-18T04:10:41.884Z,25.06
2023-06-18T04:11:41.913Z,25.06
2023-06-18T04:12:42.016Z,25.07
2023-06-18T04:13:41.985Z,25.07
2023-06-18T04:14:42.040Z,25.08
2023-06-18T04:15:42.082Z,25.08
2023-06-18T04:16:42.127Z,25.08
2023-06-18T04:17:42.179Z,25.09
2023-06-18T04:18:42.164Z,25.09
2023-06-18T04:19:42.226Z,25.09
2023-06-18T04:20:42.237Z,25.10
2023-06-18T04:21:42.265Z,25.11
2023-06-18T04:22:42.312Z,25.11
2023-06-18T04:23:42.345Z,25.13
2023-06-18T04:24:42.387Z,25.13
2023-06-18T04:25:42.417Z,25.14
2023-06-18T04:26:42.455Z,25.14
2023-06-18T04:27:42.470Z,25.14
2023-06-18T04:28:42.529Z,25.15
2023-06-18T04:29:42.552Z,25.16
2023-06-18T04:30:42.597Z,25.17
2023-06-18T04:31:42.623Z,25.17
2023-06-18T04:32:42.706Z,25.18
2023-06-18T04:33:42.672Z,25.19
2023-06-18T04:34:42.701Z,25.20
2023-06-18T04:35:42.765Z,25.21
2023-06-18T04:36:42.756Z,25.40
2023-06-18T04:37:42.799Z,25.88
2023-06-18T04:38:42.794Z,26.32
2023-06-18T04:39:42.852Z,26.81
2023-06-18T04:40:42.894Z,27.20
2023-06-18T04:41:42.917Z,27.42
2023-06-18T04:42:42.940Z,27.43
2023-06-18T04:43:42.965Z,27.27
2023-06-18T04:44:42.994Z,27.06
2023-06-18T04:45:43.045Z,26.91
2023-06-18T04:46:43.118Z,26.80
2023-06-18T04:47:43.155Z,26.70
2023-06-18T04:48:43.187Z,26.61
2023-06-18T04:49:43.246Z,26.54
2023-06-18T04:50:43.343Z,26.46
2023-06-18T04:51:43.375Z,26.41
2023-06-18T04:52:43.467Z,26.38
2023-06-18T04:53:43.441Z,26.36
2023-06-18T04:54:43.466Z,26.34
2023-06-18T04:55:43.482Z,26.33
2023-06-18T04:56:43.503Z,26.33
2023-06-18T04:57:43.532Z,26.33
2023-06-18T04:58:43.553Z,26.33
2023-06-18T04:59:43.588Z,26.33
2023-06-18T05:00:43.626Z,26.33
2023-06-18T05:01:43.668Z,26.30
2023-06-18T05:02:43.759Z,26.28
2023-06-18T05:03:43.844Z,26.26
2023-06-18T05:04:43.792Z,26.24
2023-06-18T05:05:43.823Z,26.22
2023-06-18T05:06:43.858Z,26.20
2023-06-18T05:07:43.873Z,26.19
2023-06-18T05:08:43.902Z,26.18
2023-06-18T05:09:43.903Z,26.17
2023-06-18T05:10:43.929Z,26.19
2023-06-18T05:11:43.930Z,26.20
2023-06-18T05:12:43.942Z,26.22
2023-06-18T05:13:43.961Z,26.25
2023-06-18T05:14:43.988Z,26.27
2023-06-18T05:15:44.030Z,26.28
2023-06-18T05:16:44.084Z,26.29
2023-06-18T05:17:44.164Z,26.28
2023-06-18T05:18:44.130Z,26.29
2023-06-18T05:19:44.168Z,26.30
2023-06-18T05:20:44.192Z,26.29
2023-06-18T05:21:44.286Z,26.27
2023-06-18T05:22:44.255Z,26.25
2023-06-18T05:23:44.280Z,26.26
2023-06-18T05:24:44.324Z,26.25
2023-06-18T05:25:44.355Z,26.26
2023-06-18T05:26:44.396Z,26.27
2023-06-18T05:27:44.412Z,26.28
2023-06-18T05:28:44.478Z,26.30
2023-06-18T05:29:44.519Z,26.31
2023-06-18T05:30:44.591Z,26.33
2023-06-18T05:31:44.655Z,26.34
2023-06-18T05:32:44.857Z,26.36
2023-06-18T05:33:44.765Z,26.38
2023-06-18T05:34:44.819Z,26.40
2023-06-18T05:35:44.886Z,26.40
2023-06-18T05:36:44.934Z,26.40
2023-06-18T05:37:44.994Z,26.43
2023-06-18T05:38:45.068Z,26.44
2023-06-18T05:39:45.124Z,26.46
2023-06-18T05:40:45.167Z,26.49
2023-06-18T05:41:45.246Z,26.51
2023-06-18T05:42:45.285Z,26.52
2023-06-18T05:43:45.357Z,26.55
2023-06-18T05:44:45.398Z,26.57
2023-06-18T05:45:45.474Z,26.57
2023-06-18T05:46:45.654Z,26.59
2023-06-18T05:47:45.654Z,26.59
2023-06-18T05:48:45.639Z,26.61
2023-06-18T05:49:45.700Z,26.64
2023-06-18T05:50:45.759Z,26.65
2023-06-18T05:51:45.815Z,26.68
2023-06-18T05:52:45.861Z,26.69
2023-06-18T05:53:45.901Z,26.71
2023-06-18T05:54:45.978Z,26.73
2023-06-18T05:55:46.006Z,26.75
2023-06-18T05:56:46.055Z,26.76
2023-06-18T05:57:46.121Z,26.78
2023-06-18T05:58:46.164Z,26.80
2023-06-18T05:59:46.219Z,26.83
2023-06-18T06:00:46.256Z,26.85
2023-06-18T06:01:46.324Z,26.87
2023-06-18T06:02:46.431Z,26.89
2023-06-18T06:03:46.451Z,26.90
2023-06-18T06:04:47.142Z,26.92
2023-06-18T06:05:46.498Z,26.93
2023-06-18T06:06:46.539Z,26.94
2023-06-18T06:07:46.560Z,26.96
2023-06-18T06:08:46.613Z,26.97
2023-06-18T06:09:46.658Z,26.99
2023-06-18T06:10:46.681Z,27.00
2023-06-18T06:11:46.704Z,27.02
2023-06-18T06:12:46.736Z,27.04
2023-06-18T06:13:46.781Z,27.05
2023-06-18T06:14:46.804Z,27.05
2023-06-18T06:15:47.018Z,27.07
2023-06-18T06:16:46.876Z,27.08
2023-06-18T06:17:46.947Z,27.10
2023-06-18T06:18:46.920Z,27.10
2023-06-18T06:19:46.947Z,27.11
2023-06-18T06:20:46.982Z,27.12
2023-06-18T06:21:46.990Z,27.13
2023-06-18T06:22:47.010Z,27.15
2023-06-18T06:23:47.028Z,27.16
2023-06-18T06:24:47.083Z,27.18
2023-06-18T06:25:47.092Z,27.18
2023-06-18T06:26:47.122Z,27.19
2023-06-18T06:27:47.131Z,27.21
2023-06-18T06:28:47.147Z,27.23
2023-06-18T06:29:47.155Z,27.25
2023-06-18T06:30:47.190Z,27.28
2023-06-18T06:31:47.194Z,27.28
2023-06-18T06:32:47.253Z,27.29
2023-06-18T06:33:47.220Z,27.32
2023-06-18T06:34:47.254Z,27.34
2023-06-18T06:35:47.259Z,27.35
2023-06-18T06:36:47.272Z,27.36
2023-06-18T06:37:47.297Z,27.38
2023-06-18T06:38:47.311Z,27.40
2023-06-18T06:39:47.304Z,27.41
2023-06-18T06:40:47.325Z,27.42
2023-06-18T06:41:47.307Z,27.44
2023-06-18T06:42:47.295Z,27.45
2023-06-18T06:43:47.325Z,27.47
2023-06-18T06:44:47.322Z,27.49
2023-06-18T06:45:47.414Z,27.52
2023-06-18T06:46:47.316Z,27.53
2023-06-18T06:47:47.384Z,27.55
2023-06-18T06:48:47.327Z,27.56
2023-06-18T06:49:47.316Z,27.59
2023-06-18T06:50:47.321Z,27.60
2023-06-18T06:51:47.336Z,27.61
2023-06-18T06:52:47.350Z,27.63
2023-06-18T06:53:48.498Z,27.65
2023-06-18T06:54:47.330Z,27.66
2023-06-18T06:55:47.348Z,27.68
2023-06-18T06:56:47.348Z,27.70
2023-06-18T06:57:47.340Z,27.71
2023-06-18T06:58:47.341Z,27.73
2023-06-18T06:59:47.350Z,27.74
2023-06-18T07:00:47.458Z,27.76
2023-06-18T07:01:47.449Z,27.77
2023-06-18T07:02:47.596Z,27.79
2023-06-18T07:03:47.554Z,27.81
2023-06-18T07:04:47.563Z,27.82
2023-06-18T07:05:47.551Z,27.84
2023-06-18T07:06:47.564Z,27.85
2023-06-18T07:07:47.624Z,27.86
2023-06-18T07:08:47.685Z,27.87
2023-06-18T07:09:47.717Z,27.88
2023-06-18T07:10:47.782Z,27.89
2023-06-18T07:11:47.830Z,27.91
2023-06-18T07:12:47.901Z,27.92
2023-06-18T07:13:47.986Z,27.93
2023-06-18T07:14:48.019Z,27.95
2023-06-18T07:15:48.094Z,27.96
2023-06-18T07:16:48.188Z,27.97
2023-06-18T07:17:48.235Z,27.98
2023-06-18T07:18:48.235Z,27.99
2023-06-18T07:19:48.326Z,28.00
2023-06-18T07:20:48.361Z,28.01
2023-06-18T07:21:48.446Z,28.02
2023-06-18T07:22:48.480Z,28.03
2023-06-18T07:23:48.548Z,28.04
2023-06-18T07:24:48.589Z,28.06
2023-06-18T07:25:48.655Z,28.07
2023-06-18T07:26:48.705Z,28.07
2023-06-18T07:27:48.761Z,28.09
2023-06-18T07:28:48.819Z,28.10
2023-06-18T07:29:48.865Z,28.11
2023-06-18T07:30:48.918Z,28.12
2023-06-18T07:31:48.964Z,28.13
2023-06-18T07:32:49.078Z,28.15
2023-06-18T07:33:49.069Z,28.15
2023-06-18T07:34:49.108Z,28.17
2023-06-18T07:35:49.179Z,28.17
2023-06-18T07:36:49.224Z,28.17
2023-06-18T07:37:49.267Z,28.19
2023-06-18T07:38:49.322Z,28.19
2023-06-18T07:39:49.365Z,28.20
2023-06-18T07:40:49.406Z,28.21
2023-06-18T07:41:49.436Z,28.21
2023-06-18T07:42:49.474Z,28.22
2023-06-18T07:43:49.519Z,28.24
2023-06-18T07:44:49.555Z,28.25
2023-06-18T07:45:49.613Z,28.25
2023-06-18T07:46:49.696Z,28.27
2023-06-18T07:47:49.713Z,28.28
2023-06-18T07:48:49.744Z,28.29
2023-06-18T07:49:49.802Z,28.30
2023-06-18T07:50:49.829Z,28.29
2023-06-18T07:51:49.870Z,28.31
2023-06-18T07:52:49.899Z,28.31
2023-06-18T07:53:49.925Z,28.32
2023-06-18T07:54:49.973Z,28.34
2023-06-18T07:55:50.049Z,28.35
2023-06-18T07:56:50.061Z,28.36
2023-06-18T07:57:50.107Z,28.37
2023-06-18T07:58:50.117Z,28.38
2023-06-18T07:59:50.149Z,28.40
2023-06-18T08:00:50.198Z,28.40
2023-06-18T08:01:50.283Z,28.41
2023-06-18T08:02:50.291Z,28.42
2023-06-18T08:03:50.315Z,28.44
2023-06-18T08:04:50.305Z,28.45
2023-06-18T08:05:50.361Z,28.45
2023-06-18T08:06:50.382Z,28.46
2023-06-18T08:07:50.410Z,28.47
2023-06-18T08:08:50.455Z,28.45
2023-06-18T08:09:50.478Z,28.46
2023-06-18T08:10:50.502Z,28.47
2023-06-18T08:11:50.568Z,28.48
2023-06-18T08:12:50.553Z,28.48
2023-06-18T08:13:50.581Z,28.49
2023-06-18T08:14:50.612Z,28.50
2023-06-18T08:15:50.677Z,28.51
2023-06-18T08:16:50.673Z,28.52
2023-06-18T08:17:50.705Z,28.53
2023-06-18T08:18:50.804Z,28.53
2023-06-18T08:19:50.762Z,28.54
2023-06-18T08:20:50.766Z,28.53
2023-06-18T08:21:50.815Z,28.53
2023-06-18T08:22:50.811Z,28.53
2023-06-18T08:23:50.861Z,28.53
2023-06-18T08:24:50.876Z,28.53
2023-06-18T08:25:50.883Z,28.53
2023-06-18T08:26:50.955Z,28.52
2023-06-18T08:27:50.935Z,28.51
2023-06-18T08:28:50.983Z,28.50
2023-06-18T08:29:51.016Z,28.53
2023-06-18T08:30:51.034Z,28.55
2023-06-18T08:31:51.047Z,28.56
2023-06-18T08:32:52.124Z,28.58
2023-06-18T08:33:51.079Z,28.59
2023-06-18T08:34:51.123Z,28.61
2023-06-18T08:35:51.151Z,28.62
2023-06-18T08:36:51.156Z,28.64
2023-06-18T08:37:51.180Z,28.64
2023-06-18T08:38:51.208Z,28.65
2023-06-18T08:39:51.226Z,28.67
2023-06-18T08:40:51.247Z,28.67
2023-06-18T08:41:51.256Z,28.67
2023-06-18T08:43:02.486Z,28.68
2023-06-18T08:43:52.272Z,28.68
2023-06-18T08:44:51.252Z,28.69
2023-06-18T08:45:51.285Z,28.70
2023-06-18T08:46:51.243Z,28.70
2023-06-18T08:47:51.248Z,28.71
2023-06-18T08:48:51.280Z,28.73
2023-06-18T08:49:51.218Z,28.74
2023-06-18T08:50:51.198Z,28.74
2023-06-18T08:51:51.203Z,28.74
2023-06-18T08:52:51.185Z,28.75
2023-06-18T08:53:51.177Z,28.76
2023-06-18T08:54:51.163Z,28.76
2023-06-18T08:55:51.162Z,28.77
2023-06-18T08:56:51.175Z,28.77
2023-06-18T08:57:51.148Z,28.77
2023-06-18T08:58:51.152Z,28.79
2023-06-18T08:59:51.143Z,28.78
2023-06-18T09:00:51.124Z,28.78
2023-06-18T09:01:51.126Z,28.78
2023-06-18T09:02:51.244Z,28.77
2023-06-18T09:03:51.114Z,28.78
2023-06-18T09:04:51.165Z,28.78
2023-06-18T09:05:51.140Z,28.78
2023-06-18T09:06:51.080Z,28.79
2023-06-18T09:07:51.086Z,28.79
2023-06-18T09:08:51.082Z,28.79
2023-06-18T09:09:51.066Z,28.79
2023-06-18T09:10:51.069Z,28.79
2023-06-18T09:11:51.069Z,28.79
2023-06-18T09:12:51.046Z,28.79
2023-06-18T09:13:51.053Z,28.79
2023-06-18T09:14:51.115Z,28.80
2023-06-18T09:15:51.079Z,28.80
2023-06-18T09:16:51.236Z,28.79
2023-06-18T09:17:51.143Z,28.79
2023-06-18T09:18:51.111Z,28.79
2023-06-18T09:19:51.151Z,28.79
2023-06-18T09:20:51.140Z,28.79
2023-06-18T09:21:51.141Z,28.79
2023-06-18T09:22:51.164Z,28.79
2023-06-18T09:23:51.164Z,28.79
2023-06-18T09:24:51.152Z,28.80
2023-06-18T09:25:51.185Z,28.80
2023-06-18T09:26:51.173Z,28.80
2023-06-18T09:27:51.192Z,28.80
2023-06-18T09:28:51.204Z,28.80
2023-06-18T09:29:51.228Z,28.80
2023-06-18T09:30:51.235Z,28.80
2023-06-18T09:31:51.222Z,28.80
2023-06-18T09:32:51.262Z,28.79
2023-06-18T09:33:51.254Z,28.80
2023-06-18T09:34:51.294Z,28.80
2023-06-18T09:35:51.254Z,28.80
2023-06-18T09:36:51.295Z,28.80
2023-06-18T09:37:51.269Z,28.80
2023-06-18T09:38:51.283Z,28.81
2023-06-18T09:39:51.291Z,28.80
2023-06-18T09:40:51.325Z,28.80
2023-06-18T09:41:51.334Z,28.80
2023-06-18T09:42:51.325Z,28.80
2023-06-18T09:43:51.339Z,28.81
2023-06-18T09:44:51.361Z,28.81
2023-06-18T09:45:51.383Z,28.81
2023-06-18T09:46:51.515Z,28.81
2023-06-18T09:47:51.457Z,28.80
2023-06-18T09:48:51.450Z,28.81
2023-06-18T09:49:51.415Z,28.81
2023-06-18T09:50:51.434Z,28.80
2023-06-18T09:51:51.443Z,28.81
2023-06-18T09:52:51.473Z,28.81
2023-06-18T09:53:51.443Z,28.81
2023-06-18T09:54:51.470Z,28.81
2023-06-18T09:55:51.487Z,28.81
2023-06-18T09:56:51.495Z,28.81
2023-06-18T09:57:51.501Z,28.81
2023-06-18T09:58:51.527Z,28.81
2023-06-18T09:59:51.516Z,28.82
2023-06-18T10:00:51.627Z,28.81
2023-06-18T10:01:51.580Z,28.82
2023-06-18T10:02:51.591Z,28.81
2023-06-18T10:03:51.630Z,28.82
2023-06-18T10:04:51.554Z,28.81
2023-06-18T10:05:51.581Z,28.81
2023-06-18T10:06:51.612Z,28.81
2023-06-18T10:07:51.594Z,28.81
2023-06-18T10:08:51.628Z,28.81
2023-06-18T10:09:51.608Z,28.81
2023-06-18T10:10:51.619Z,28.81
2023-06-18T10:11:51.638Z,28.80
2023-06-18T10:12:51.627Z,28.81
2023-06-18T10:13:51.654Z,28.81
2023-06-18T10:14:51.648Z,28.81
2023-06-18T10:15:51.705Z,28.80
2023-06-18T10:16:51.661Z,28.80
2023-06-18T10:17:51.682Z,28.80
2023-06-18T10:18:51.676Z,28.81
2023-06-18T10:19:51.676Z,28.80
2023-06-18T10:20:51.704Z,28.80
2023-06-18T10:21:51.718Z,28.80
2023-06-18T10:22:51.731Z,28.80
2023-06-18T10:23:51.738Z,28.80
2023-06-18T10:24:51.748Z,28.80
2023-06-18T10:25:51.729Z,28.80
2023-06-18T10:26:51.737Z,28.79
2023-06-18T10:27:51.750Z,28.79
2023-06-18T10:28:51.766Z,28.80
2023-06-18T10:29:51.769Z,28.79
2023-06-18T10:30:51.767Z,28.79
2023-06-18T10:31:51.791Z,28.79
2023-06-18T10:32:51.846Z,28.79
2023-06-18T10:33:51.821Z,28.79
2023-06-18T10:34:51.839Z,28.78
2023-06-18T10:35:51.857Z,28.79
2023-06-18T10:36:51.856Z,28.78
2023-06-18T10:37:51.853Z,28.78
2023-06-18T10:38:51.866Z,28.78
2023-06-18T10:39:51.880Z,28.77
2023-06-18T10:40:51.890Z,28.78
2023-06-18T10:41:51.898Z,28.77
2023-06-18T10:42:51.910Z,28.77
2023-06-18T10:43:51.943Z,28.76
2023-06-18T10:44:51.938Z,28.77
2023-06-18T10:45:51.989Z,28.76
2023-06-18T10:46:51.959Z,28.76
2023-06-18T10:47:52.007Z,28.77
2023-06-18T10:48:51.973Z,28.75
2023-06-18T10:49:51.973Z,28.76
2023-06-18T10:50:51.989Z,28.75
2023-06-18T10:51:52.004Z,28.75
2023-06-18T10:52:52.038Z,28.74
2023-06-18T10:53:52.035Z,28.75
2023-06-18T10:54:52.062Z,28.75
2023-06-18T10:55:52.030Z,28.74
2023-06-18T10:56:52.061Z,28.74
2023-06-18T10:57:52.047Z,28.74
2023-06-18T10:58:52.064Z,28.74
2023-06-18T10:59:52.068Z,28.73
2023-06-18T11:00:52.079Z,28.74
2023-06-18T11:01:52.098Z,28.74
2023-06-18T11:02:52.246Z,28.74
2023-06-18T11:03:52.156Z,28.73
2023-06-18T11:04:52.131Z,28.73
2023-06-18T11:05:52.127Z,28.73
2023-06-18T11:06:52.147Z,28.73
2023-06-18T11:07:52.136Z,28.72
2023-06-18T11:08:52.150Z,28.72
2023-06-18T11:09:52.157Z,28.72
2023-06-18T11:10:52.177Z,28.72
2023-06-18T11:11:52.192Z,28.72
2023-06-18T11:12:52.201Z,28.72
2023-06-18T11:13:52.201Z,28.72
2023-06-18T11:14:52.219Z,28.71
2023-06-18T11:15:52.232Z,28.71
2023-06-18T11:16:52.237Z,28.71
2023-06-18T11:17:52.272Z,28.69
2023-06-18T11:18:52.360Z,28.70
2023-06-18T11:19:52.274Z,28.70
2023-06-18T11:20:52.294Z,28.70
2023-06-18T11:21:52.296Z,28.69
2023-06-18T11:22:52.288Z,28.69
2023-06-18T11:23:52.347Z,28.69
2023-06-18T11:24:52.346Z,28.68
2023-06-18T11:25:52.328Z,28.69
2023-06-18T11:26:52.351Z,28.69
2023-06-18T11:27:52.373Z,28.68
2023-06-18T11:28:52.353Z,28.69
2023-06-18T11:29:52.382Z,28.68
2023-06-18T11:30:52.438Z,28.67
2023-06-18T11:31:52.396Z,28.67
2023-06-18T11:32:52.498Z,28.67
2023-06-18T11:33:52.405Z,28.67
2023-06-18T11:34:52.419Z,28.66
2023-06-18T11:35:52.454Z,28.67
2023-06-18T11:36:52.475Z,28.66
2023-06-18T11:37:52.464Z,28.66
2023-06-18T11:38:52.482Z,28.66
2023-06-18T11:39:52.492Z,28.65
2023-06-18T11:40:52.504Z,28.65
2023-06-18T11:41:52.513Z,28.65
2023-06-18T11:42:52.571Z,28.65
2023-06-18T11:43:52.626Z,28.65
2023-06-18T11:44:52.541Z,28.64
2023-06-18T11:45:52.545Z,28.64
2023-06-18T11:46:52.677Z,28.65
2023-06-18T11:47:52.624Z,28.64
2023-06-18T11:48:52.608Z,28.64
2023-06-18T11:49:52.620Z,28.64
2023-06-18T11:50:52.624Z,28.63
2023-06-18T11:51:52.610Z,28.63
2023-06-18T11:52:52.626Z,28.63
2023-06-18T11:53:52.653Z,28.63
2023-06-18T11:54:52.660Z,28.63
2023-06-18T11:55:52.657Z,28.63
2023-06-18T11:56:52.664Z,28.63
2023-06-18T11:57:52.725Z,28.62
2023-06-18T11:58:54.111Z,28.61
2023-06-18T11:59:52.717Z,28.61
2023-06-18T12:00:52.674Z,28.61
2023-06-18T12:01:52.710Z,28.61
2023-06-18T12:02:52.731Z,28.60
2023-06-18T12:03:52.674Z,28.61
2023-06-18T12:04:52.653Z,28.60
2023-06-18T12:05:52.641Z,28.59
2023-06-18T12:06:52.643Z,28.59
2023-06-18T12:07:52.631Z,28.58
2023-06-18T12:08:52.627Z,28.58
2023-06-18T12:09:52.643Z,28.58
2023-06-18T12:10:53.046Z,28.57
2023-06-18T12:11:52.612Z,28.56
2023-06-18T12:12:52.661Z,28.55
2023-06-18T12:13:52.584Z,28.55
2023-06-18T12:14:52.575Z,28.54
2023-06-18T12:15:52.577Z,28.54
2023-06-18T12:16:53.224Z,28.54
2023-06-18T12:17:52.610Z,28.53
2023-06-18T12:18:52.555Z,28.52
2023-06-18T12:19:52.536Z,28.53
2023-06-18T12:20:52.545Z,28.52
2023-06-18T12:21:52.539Z,28.51
2023-06-18T12:22:52.521Z,28.51
2023-06-18T12:23:52.664Z,28.50
2023-06-18T12:24:52.501Z,28.50
2023-06-18T12:25:52.508Z,28.50
2023-06-18T12:26:52.493Z,28.49
2023-06-18T12:27:52.482Z,28.49
2023-06-18T12:28:52.483Z,28.49
2023-06-18T12:29:52.495Z,28.49
2023-06-18T12:30:52.514Z,28.48
2023-06-18T12:31:52.495Z,28.47
2023-06-18T12:32:52.481Z,28.46
2023-06-18T12:33:52.462Z,28.46
2023-06-18T12:34:52.458Z,28.45
2023-06-18T12:35:52.460Z,28.46
2023-06-18T12:36:52.427Z,28.45
2023-06-18T12:37:52.434Z,28.44
2023-06-18T12:38:52.413Z,28.44
2023-06-18T12:39:52.424Z,28.44
2023-06-18T12:40:52.428Z,28.43
2023-06-18T12:41:52.426Z,28.43
2023-06-18T12:42:52.396Z,28.43
2023-06-18T12:43:52.398Z,28.42
2023-06-18T12:44:52.387Z,28.43
2023-06-18T12:45:52.470Z,28.41
2023-06-18T12:46:52.382Z,28.41
2023-06-18T12:47:52.460Z,28.41
2023-06-18T12:48:52.358Z,28.40
2023-06-18T12:49:52.342Z,28.40
2023-06-18T12:50:52.337Z,28.39
2023-06-18T12:51:52.343Z,28.39
2023-06-18T12:52:52.339Z,28.39